sensor_id;sensor_type;location;lat;lon;timestamp;pressure;altitude;pressure_sealevel;temperature;humidity
68889;BME280;55930;47.412;8.790;2023-02-15T00:01:36;95790.59;;;-2.88;100.00
68889;BME280;55930;47.412;8.790;2023-02-15T00:04:57;95786.97;;;-2.83;100.00
68889;BME280;55930;47.412;8.790;2023-02-15T00:08:17;95775.47;;;-2.82;100.00
68889;BME280;55930;47.412;8.790;2023-02-15T00:11:38;95777.72;;;-3.00;100.00
68889;BME280;55930;47.412;8.790;2023-02-15T00:15:25;95779.63;;;-3.16;100.00
68889;BME280;55930;47.412;8.790;2023-02-15T00:18:46;95780.56;;;-3.24;100.00
68889;BME280;55930;47.412;8.790;2023-02-15T00:22:06;95775.19;;;-3.16;100.00
68889;BME280;55930;47.412;8.790;2023-02-15T00:25:26;95772.88;;;-3.01;100.00
68889;BME280;55930;47.412;8.790;2023-02-15T00:28:47;95782.78;;;-3.07;100.00
68889;BME280;55930;47.412;8.790;2023-02-15T00:32:09;95771.44;;;-2.99;100.00
68889;BME280;55930;47.412;8.790;2023-02-15T00:35:30;95772.38;;;-3.26;100.00
68889;BME280;55930;47.412;8.790;2023-02-15T00:38:50;95763.50;;;-3.25;100.00
68889;BME280;55930;47.412;8.790;2023-02-15T00:42:11;95773.63;;;-3.20;100.00
68889;BME280;55930;47.412;8.790;2023-02-15T00:45:31;95777.34;;;-3.18;100.00
68889;BME280;55930;47.412;8.790;2023-02-15T00:48:51;95779.44;;;-3.08;100.00
68889;BME280;55930;47.412;8.790;2023-02-15T00:52:12;95785.69;;;-3.28;100.00
68889;BME280;55930;47.412;8.790;2023-02-15T00:55:32;95789.59;;;-3.18;100.00
68889;BME280;55930;47.412;8.790;2023-02-15T00:58:53;95785.97;;;-3.14;100.00
68889;BME280;55930;47.412;8.790;2023-02-15T01:02:14;95788.88;;;-2.99;100.00
68889;BME280;55930;47.412;8.790;2023-02-15T01:05:34;95796.22;;;-3.01;100.00
68889;BME280;55930;47.412;8.790;2023-02-15T01:08:54;95790.94;;;-3.24;100.00
68889;BME280;55930;47.412;8.790;2023-02-15T01:12:15;95789.28;;;-3.32;100.00
68889;BME280;55930;47.412;8.790;2023-02-15T01:15:35;95779.56;;;-3.20;100.00
68889;BME280;55930;47.412;8.790;2023-02-15T01:18:56;95784.38;;;-3.18;100.00
68889;BME280;55930;47.412;8.790;2023-02-15T01:22:17;95779.31;;;-2.95;100.00
68889;BME280;55930;47.412;8.790;2023-02-15T01:25:39;95780.53;;;-3.09;100.00
68889;BME280;55930;47.412;8.790;2023-02-15T01:28:59;95778.00;;;-3.05;100.00
68889;BME280;55930;47.412;8.790;2023-02-15T01:32:20;95778.41;;;-3.22;100.00
68889;BME280;55930;47.412;8.790;2023-02-15T01:35:40;95777.16;;;-3.09;100.00
68889;BME280;55930;47.412;8.790;2023-02-15T01:39:03;95774.31;;;-3.04;100.00
68889;BME280;55930;47.412;8.790;2023-02-15T01:42:24;95780.75;;;-2.98;100.00
68889;BME280;55930;47.412;8.790;2023-02-15T01:45:47;95774.31;;;-2.85;100.00
68889;BME280;55930;47.412;8.790;2023-02-15T01:49:16;95772.19;;;-2.98;100.00
68889;BME280;55930;47.412;8.790;2023-02-15T01:52:44;95775.22;;;-2.96;100.00
68889;BME280;55930;47.412;8.790;2023-02-15T01:56:29;95769.75;;;-2.91;100.00
68889;BME280;55930;47.412;8.790;2023-02-15T01:59:58;95767.00;;;-2.98;100.00
68889;BME280;55930;47.412;8.790;2023-02-15T02:03:30;95766.25;;;-2.99;100.00
68889;BME280;55930;47.412;8.790;2023-02-15T02:06:57;95766.81;;;-2.90;100.00
68889;BME280;55930;47.412;8.790;2023-02-15T02:10:24;95765.84;;;-2.82;100.00
68889;BME280;55930;47.412;8.790;2023-02-15T02:13:47;95757.66;;;-2.84;100.00
68889;BME280;55930;47.412;8.790;2023-02-15T02:35:49;95762.56;;;-2.79;100.00
68889;BME280;55930;47.412;8.790;2023-02-15T02:43:12;95765.16;;;-2.59;100.00
68889;BME280;55930;47.412;8.790;2023-02-15T02:47:00;95763.50;;;-2.48;100.00
68889;BME280;55930;47.412;8.790;2023-02-15T02:50:28;95751.97;;;-2.28;100.00
68889;BME280;55930;47.412;8.790;2023-02-15T02:53:51;95749.13;;;-2.19;100.00
68889;BME280;55930;47.412;8.790;2023-02-15T02:57:18;95751.41;;;-2.18;100.00
68889;BME280;55930;47.412;8.790;2023-02-15T03:04:10;95749.84;;;-2.00;100.00
68889;BME280;55930;47.412;8.790;2023-02-15T03:07:34;95742.72;;;-2.03;100.00
68889;BME280;55930;47.412;8.790;2023-02-15T03:10:59;95744.16;;;-2.05;100.00
68889;BME280;55930;47.412;8.790;2023-02-15T03:14:20;95744.47;;;-2.10;100.00
68889;BME280;55930;47.412;8.790;2023-02-15T03:17:45;95742.66;;;-2.06;100.00
68889;BME280;55930;47.412;8.790;2023-02-15T03:21:10;95742.50;;;-2.17;100.00
68889;BME280;55930;47.412;8.790;2023-02-15T03:24:53;95747.06;;;-2.10;100.00
68889;BME280;55930;47.412;8.790;2023-02-15T03:28:19;95745.50;;;-2.15;100.00
68889;BME280;55930;47.412;8.790;2023-02-15T03:31:46;95744.13;;;-2.09;100.00
68889;BME280;55930;47.412;8.790;2023-02-15T03:35:10;95744.50;;;-2.29;100.00
68889;BME280;55930;47.412;8.790;2023-02-15T03:38:42;95747.81;;;-2.33;100.00
68889;BME280;55930;47.412;8.790;2023-02-15T03:42:26;95749.13;;;-2.42;100.00
68889;BME280;55930;47.412;8.790;2023-02-15T03:45:52;95761.25;;;-2.50;100.00
68889;BME280;55930;47.412;8.790;2023-02-15T03:49:26;95748.56;;;-2.74;100.00
68889;BME280;55930;47.412;8.790;2023-02-15T03:52:50;95750.47;;;-2.90;100.00
68889;BME280;55930;47.412;8.790;2023-02-15T03:56:10;95759.16;;;-2.83;100.00
68889;BME280;55930;47.412;8.790;2023-02-15T03:59:30;95762.84;;;-2.84;100.00
68889;BME280;55930;47.412;8.790;2023-02-15T04:03:23;95755.25;;;-2.92;100.00
68889;BME280;55930;47.412;8.790;2023-02-15T04:06:53;95758.19;;;-3.13;100.00
68889;BME280;55930;47.412;8.790;2023-02-15T04:10:14;95751.03;;;-3.00;100.00
68889;BME280;55930;47.412;8.790;2023-02-15T04:13:52;95754.91;;;-2.91;100.00
68889;BME280;55930;47.412;8.790;2023-02-15T04:17:16;95749.44;;;-2.86;100.00
68889;BME280;55930;47.412;8.790;2023-02-15T04:20:37;95754.75;;;-2.79;100.00
68889;BME280;55930;47.412;8.790;2023-02-15T04:24:16;95752.03;;;-2.86;100.00
68889;BME280;55930;47.412;8.790;2023-02-15T04:27:55;95751.06;;;-2.78;100.00
68889;BME280;55930;47.412;8.790;2023-02-15T04:31:18;95750.00;;;-2.77;100.00
68889;BME280;55930;47.412;8.790;2023-02-15T04:34:39;95747.19;;;-2.87;100.00
68889;BME280;55930;47.412;8.790;2023-02-15T04:37:59;95750.06;;;-2.92;100.00
68889;BME280;55930;47.412;8.790;2023-02-15T04:41:20;95743.66;;;-2.98;100.00
68889;BME280;55930;47.412;8.790;2023-02-15T04:44:40;95749.78;;;-3.06;100.00
68889;BME280;55930;47.412;8.790;2023-02-15T04:48:03;95754.34;;;-3.19;100.00
68889;BME280;55930;47.412;8.790;2023-02-15T04:51:24;95745.28;;;-3.29;100.00
68889;BME280;55930;47.412;8.790;2023-02-15T04:54:44;95737.69;;;-3.18;100.00
68889;BME280;55930;47.412;8.790;2023-02-15T04:58:07;95746.16;;;-3.21;100.00
68889;BME280;55930;47.412;8.790;2023-02-15T05:01:27;95753.00;;;-3.13;100.00
68889;BME280;55930;47.412;8.790;2023-02-15T05:04:50;95744.28;;;-3.05;100.00
68889;BME280;55930;47.412;8.790;2023-02-15T05:08:11;95743.81;;;-3.26;100.00
68889;BME280;55930;47.412;8.790;2023-02-15T05:11:34;95741.31;;;-3.58;100.00
68889;BME280;55930;47.412;8.790;2023-02-15T05:14:54;95738.41;;;-3.56;100.00
68889;BME280;55930;47.412;8.790;2023-02-15T05:18:16;95740.75;;;-3.32;100.00
68889;BME280;55930;47.412;8.790;2023-02-15T05:21:37;95740.16;;;-3.60;100.00
68889;BME280;55930;47.412;8.790;2023-02-15T05:24:57;95735.88;;;-3.53;100.00
68889;BME280;55930;47.412;8.790;2023-02-15T05:28:37;95735.66;;;-3.63;100.00
68889;BME280;55930;47.412;8.790;2023-02-15T05:31:59;95734.63;;;-3.59;100.00
68889;BME280;55930;47.412;8.790;2023-02-15T05:35:19;95736.06;;;-3.61;100.00
68889;BME280;55930;47.412;8.790;2023-02-15T05:38:40;95730.84;;;-3.45;100.00
68889;BME280;55930;47.412;8.790;2023-02-15T05:42:03;95732.31;;;-3.29;100.00
68889;BME280;55930;47.412;8.790;2023-02-15T05:45:23;95736.75;;;-3.10;100.00
68889;BME280;55930;47.412;8.790;2023-02-15T05:48:44;95740.09;;;-3.29;100.00
68889;BME280;55930;47.412;8.790;2023-02-15T05:52:04;95740.75;;;-3.32;100.00
68889;BME280;55930;47.412;8.790;2023-02-15T05:55:28;95734.97;;;-3.25;100.00
68889;BME280;55930;47.412;8.790;2023-02-15T05:58:52;95736.41;;;-3.28;100.00
68889;BME280;55930;47.412;8.790;2023-02-15T06:02:13;95746.59;;;-3.35;100.00
68889;BME280;55930;47.412;8.790;2023-02-15T06:05:33;95752.53;;;-3.54;100.00
68889;BME280;55930;47.412;8.790;2023-02-15T06:08:56;95748.06;;;-3.37;100.00
68889;BME280;55930;47.412;8.790;2023-02-15T06:12:17;95757.25;;;-3.40;100.00
68889;BME280;55930;47.412;8.790;2023-02-15T06:15:38;95754.19;;;-3.45;100.00
68889;BME280;55930;47.412;8.790;2023-02-15T06:18:58;95758.81;;;-2.81;100.00
68889;BME280;55930;47.412;8.790;2023-02-15T06:22:22;95762.97;;;-3.15;100.00
68889;BME280;55930;47.412;8.790;2023-02-15T06:25:44;95755.78;;;-3.57;100.00
68889;BME280;55930;47.412;8.790;2023-02-15T06:29:07;95762.91;;;-3.54;100.00
68889;BME280;55930;47.412;8.790;2023-02-15T06:32:27;95770.44;;;-3.64;100.00
68889;BME280;55930;47.412;8.790;2023-02-15T06:35:47;95769.94;;;-3.70;100.00
68889;BME280;55930;47.412;8.790;2023-02-15T06:39:11;95773.19;;;-3.57;100.00
68889;BME280;55930;47.412;8.790;2023-02-15T06:42:31;95766.59;;;-3.55;100.00
68889;BME280;55930;47.412;8.790;2023-02-15T06:45:51;95779.84;;;-3.40;100.00
68889;BME280;55930;47.412;8.790;2023-02-15T06:49:12;95781.34;;;-3.39;100.00
68889;BME280;55930;47.412;8.790;2023-02-15T06:52:33;95777.50;;;-3.30;100.00
68889;BME280;55930;47.412;8.790;2023-02-15T06:56:03;95791.63;;;-3.27;100.00
68889;BME280;55930;47.412;8.790;2023-02-15T06:59:26;95789.25;;;-3.52;100.00
68889;BME280;55930;47.412;8.790;2023-02-15T07:02:49;95789.09;;;-3.90;100.00
68889;BME280;55930;47.412;8.790;2023-02-15T07:06:15;95789.75;;;-3.62;100.00
68889;BME280;55930;47.412;8.790;2023-02-15T07:09:35;95790.91;;;-3.43;100.00
68889;BME280;55930;47.412;8.790;2023-02-15T07:12:57;95795.31;;;-3.28;100.00
68889;BME280;55930;47.412;8.790;2023-02-15T07:16:19;95781.91;;;-1.92;100.00
68889;BME280;55930;47.412;8.790;2023-02-15T07:19:40;95785.69;;;-0.44;96.00
68889;BME280;55930;47.412;8.790;2023-02-15T07:23:01;95781.19;;;0.96;87.79
68889;BME280;55930;47.412;8.790;2023-02-15T07:26:21;95782.25;;;2.49;78.56
68889;BME280;55930;47.412;8.790;2023-02-15T07:29:42;95775.31;;;4.03;72.16
68889;BME280;55930;47.412;8.790;2023-02-15T07:33:02;95784.50;;;7.94;57.62
68889;BME280;55930;47.412;8.790;2023-02-15T07:36:42;95771.03;;;9.69;50.33
68889;BME280;55930;47.412;8.790;2023-02-15T07:40:04;95768.09;;;4.17;67.10
68889;BME280;55930;47.412;8.790;2023-02-15T07:43:25;95768.69;;;3.11;76.86
68889;BME280;55930;47.412;8.790;2023-02-15T07:46:46;95759.59;;;3.33;77.75
68889;BME280;55930;47.412;8.790;2023-02-15T07:50:09;95763.44;;;3.84;77.87
68889;BME280;55930;47.412;8.790;2023-02-15T07:53:32;95770.09;;;9.75;55.85
68889;BME280;55930;47.412;8.790;2023-02-15T07:56:52;95764.06;;;13.53;42.86
68889;BME280;55930;47.412;8.790;2023-02-15T08:00:14;95756.88;;;11.60;45.42
68889;BME280;55930;47.412;8.790;2023-02-15T08:03:35;95758.94;;;6.29;62.47
68889;BME280;55930;47.412;8.790;2023-02-15T08:06:56;95763.88;;;5.70;67.85
68889;BME280;55930;47.412;8.790;2023-02-15T08:10:18;95750.16;;;6.36;67.96
68889;BME280;55930;47.412;8.790;2023-02-15T08:17:25;95745.88;;;7.08;65.21
68889;BME280;55930;47.412;8.790;2023-02-15T08:20:49;95748.56;;;7.80;60.55
68889;BME280;55930;47.412;8.790;2023-02-15T08:24:11;95749.72;;;7.95;60.45
68889;BME280;55930;47.412;8.790;2023-02-15T08:27:32;95749.97;;;10.03;53.89
68889;BME280;55930;47.412;8.790;2023-02-15T08:30:52;95748.09;;;12.71;45.94
68889;BME280;55930;47.412;8.790;2023-02-15T08:34:16;95747.47;;;11.68;47.64
68889;BME280;55930;47.412;8.790;2023-02-15T08:37:37;95756.84;;;12.98;44.47
68889;BME280;55930;47.412;8.790;2023-02-15T08:41:07;95739.50;;;11.37;48.97
68889;BME280;55930;47.412;8.790;2023-02-15T08:44:28;95739.38;;;9.78;54.38
68889;BME280;55930;47.412;8.790;2023-02-15T08:47:49;95744.19;;;10.90;51.61
68889;BME280;55930;47.412;8.790;2023-02-15T08:51:15;95737.53;;;14.81;42.88
68889;BME280;55930;47.412;8.790;2023-02-15T08:54:36;95732.28;;;15.84;38.35
68889;BME280;55930;47.412;8.790;2023-02-15T08:57:57;95739.28;;;18.26;34.63
68889;BME280;55930;47.412;8.790;2023-02-15T09:01:21;95732.50;;;17.68;34.47
68889;BME280;55930;47.412;8.790;2023-02-15T09:04:42;95727.88;;;17.69;34.18
68889;BME280;55930;47.412;8.790;2023-02-15T09:08:02;95724.44;;;17.63;34.89
68889;BME280;55930;47.412;8.790;2023-02-15T09:11:25;95731.06;;;15.26;39.27
68889;BME280;55930;47.412;8.790;2023-02-15T09:14:46;95725.94;;;13.79;41.47
68889;BME280;55930;47.412;8.790;2023-02-15T09:18:08;95731.19;;;12.28;45.75
68889;BME280;55930;47.412;8.790;2023-02-15T09:21:28;95737.56;;;10.94;49.53
68889;BME280;55930;47.412;8.790;2023-02-15T09:24:49;95726.69;;;17.70;36.51
68889;BME280;55930;47.412;8.790;2023-02-15T09:28:09;95738.94;;;18.13;34.65
68889;BME280;55930;47.412;8.790;2023-02-15T09:31:37;95738.38;;;17.72;34.36
68889;BME280;55930;47.412;8.790;2023-02-15T09:34:58;95732.66;;;19.52;31.34
68889;BME280;55930;47.412;8.790;2023-02-15T09:38:18;95727.69;;;20.22;30.22
68889;BME280;55930;47.412;8.790;2023-02-15T09:42:04;95719.75;;;18.85;31.25
68889;BME280;55930;47.412;8.790;2023-02-15T09:45:45;95714.53;;;21.70;28.29
68889;BME280;55930;47.412;8.790;2023-02-15T09:49:21;95715.66;;;21.04;28.97
68889;BME280;55930;47.412;8.790;2023-02-15T09:56:54;95709.63;;;20.86;30.55
68889;BME280;55930;47.412;8.790;2023-02-15T10:07:32;95717.75;;;13.32;42.69
68889;BME280;55930;47.412;8.790;2023-02-15T10:15:19;95714.03;;;19.65;32.46
68889;BME280;55930;47.412;8.790;2023-02-15T10:19:05;95707.28;;;23.69;25.87
68889;BME280;55930;47.412;8.790;2023-02-15T10:26:48;95700.50;;;24.73;24.55
68889;BME280;55930;47.412;8.790;2023-02-15T10:30:12;95695.88;;;22.88;26.23
68889;BME280;55930;47.412;8.790;2023-02-15T10:33:40;95692.63;;;22.71;26.16
68889;BME280;55930;47.412;8.790;2023-02-15T10:37:31;95693.25;;;25.02;24.03
68889;BME280;55930;47.412;8.790;2023-02-15T10:41:36;95685.50;;;25.06;24.94
68889;BME280;55930;47.412;8.790;2023-02-15T10:45:12;95681.94;;;24.64;23.75
68889;BME280;55930;47.412;8.790;2023-02-15T10:48:58;95680.25;;;24.61;23.30
68889;BME280;55930;47.412;8.790;2023-02-15T10:59:33;95658.59;;;25.29;22.33
68889;BME280;55930;47.412;8.790;2023-02-15T11:06:39;95651.78;;;24.02;23.74
68889;BME280;55930;47.412;8.790;2023-02-15T11:14:20;95641.50;;;16.81;35.68
68889;BME280;55930;47.412;8.790;2023-02-15T11:17:49;95642.19;;;16.16;37.10
68889;BME280;55930;47.412;8.790;2023-02-15T11:24:43;95628.47;;;16.95;37.31
68889;BME280;55930;47.412;8.790;2023-02-15T11:28:33;95612.50;;;23.18;26.08
68889;BME280;55930;47.412;8.790;2023-02-15T11:31:59;95600.13;;;25.77;22.51
68889;BME280;55930;47.412;8.790;2023-02-15T11:35:27;95591.44;;;26.15;21.54
68889;BME280;55930;47.412;8.790;2023-02-15T11:38:58;95581.06;;;27.16;21.01
68889;BME280;55930;47.412;8.790;2023-02-15T11:42:21;95572.41;;;28.98;19.33
68889;BME280;55930;47.412;8.790;2023-02-15T11:45:45;95569.06;;;27.49;21.59
68889;BME280;55930;47.412;8.790;2023-02-15T11:49:23;95560.38;;;27.13;21.46
68889;BME280;55930;47.412;8.790;2023-02-15T11:52:47;95546.72;;;27.66;22.79
68889;BME280;55930;47.412;8.790;2023-02-15T11:56:14;95541.38;;;27.98;22.04
68889;BME280;55930;47.412;8.790;2023-02-15T11:59:36;95528.72;;;28.33;21.73
68889;BME280;55930;47.412;8.790;2023-02-15T12:03:02;95516.03;;;30.56;18.97
68889;BME280;55930;47.412;8.790;2023-02-15T12:06:29;95499.25;;;29.73;19.33
68889;BME280;55930;47.412;8.790;2023-02-15T12:10:02;95494.75;;;27.56;20.97
68889;BME280;55930;47.412;8.790;2023-02-15T12:13:26;95483.63;;;28.57;20.44
68889;BME280;55930;47.412;8.790;2023-02-15T12:16:50;95471.88;;;29.90;18.52
68889;BME280;55930;47.412;8.790;2023-02-15T12:23:42;95465.06;;;26.23;22.24
68889;BME280;55930;47.412;8.790;2023-02-15T12:27:20;95565.41;;;22.39;27.37
68889;BME280;55930;47.412;8.790;2023-02-15T12:30:42;95552.78;;;19.61;29.67
68889;BME280;55930;47.412;8.790;2023-02-15T12:34:09;95466.06;;;26.79;24.06
68889;BME280;55930;47.412;8.790;2023-02-15T12:37:31;95466.44;;;27.99;22.97
68889;BME280;55930;47.412;8.790;2023-02-15T12:41:01;95465.53;;;27.19;21.59
68889;BME280;55930;47.412;8.790;2023-02-15T12:44:24;95482.28;;;29.15;19.72
68889;BME280;55930;47.412;8.790;2023-02-15T12:47:47;95476.63;;;29.90;20.48
68889;BME280;55930;47.412;8.790;2023-02-15T12:51:27;95485.03;;;28.33;20.39
68889;BME280;55930;47.412;8.790;2023-02-15T12:54:48;95488.34;;;28.89;19.76
68889;BME280;55930;47.412;8.790;2023-02-15T12:58:17;95500.88;;;27.79;20.81
68889;BME280;55930;47.412;8.790;2023-02-15T13:01:39;95504.78;;;28.49;20.34
68889;BME280;55930;47.412;8.790;2023-02-15T13:08:57;95518.59;;;28.03;20.45
68889;BME280;55930;47.412;8.790;2023-02-15T13:12:22;95510.09;;;29.04;19.45
68889;BME280;55930;47.412;8.790;2023-02-15T13:15:48;95520.09;;;26.45;20.71
68889;BME280;55930;47.412;8.790;2023-02-15T13:19:26;95521.84;;;25.06;22.48
68889;BME280;55930;47.412;8.790;2023-02-15T13:22:52;95509.31;;;24.82;22.02
68889;BME280;55930;47.412;8.790;2023-02-15T13:26:20;95507.38;;;25.96;21.77
68889;BME280;55930;47.412;8.790;2023-02-15T13:29:44;95507.22;;;21.95;25.56
68889;BME280;55930;47.412;8.790;2023-02-15T13:33:20;95510.72;;;20.10;28.82
68889;BME280;55930;47.412;8.790;2023-02-15T13:40:32;95497.06;;;26.02;22.27
68889;BME280;55930;47.412;8.790;2023-02-15T13:44:07;95498.78;;;25.77;22.51
68889;BME280;55930;47.412;8.790;2023-02-15T13:51:13;95499.88;;;27.29;19.80
68889;BME280;55930;47.412;8.790;2023-02-15T14:13:04;95499.03;;;24.88;21.32
68889;BME280;55930;47.412;8.790;2023-02-15T14:16:39;95498.28;;;21.81;25.44
68889;BME280;55930;47.412;8.790;2023-02-15T14:30:54;95510.56;;;23.21;25.04
68889;BME280;55930;47.412;8.790;2023-02-15T14:34:23;95511.66;;;22.99;24.06
68889;BME280;55930;47.412;8.790;2023-02-15T14:41:49;95511.66;;;21.25;27.31
68889;BME280;55930;47.412;8.790;2023-02-15T14:45:22;95506.88;;;18.81;31.38
68889;BME280;55930;47.412;8.790;2023-02-15T14:48:55;95512.16;;;18.31;32.15
68889;BME280;55930;47.412;8.790;2023-02-15T14:52:17;95507.00;;;16.52;35.50
68889;BME280;55930;47.412;8.790;2023-02-15T14:55:37;95506.97;;;15.59;37.89
68889;BME280;55930;47.412;8.790;2023-02-15T14:59:00;95510.72;;;15.32;38.96
68889;BME280;55930;47.412;8.790;2023-02-15T15:02:40;95506.97;;;14.75;41.79
68889;BME280;55930;47.412;8.790;2023-02-15T15:06:03;95510.13;;;15.23;40.81
68889;BME280;55930;47.412;8.790;2023-02-15T15:09:26;95503.91;;;14.97;41.85
68889;BME280;55930;47.412;8.790;2023-02-15T15:12:51;95499.22;;;14.62;42.72
68889;BME280;55930;47.412;8.790;2023-02-15T15:16:29;95510.59;;;14.04;43.42
68889;BME280;55930;47.412;8.790;2023-02-15T15:26:34;95494.16;;;13.01;47.03
68889;BME280;55930;47.412;8.790;2023-02-15T15:29:57;95504.66;;;13.04;47.26
68889;BME280;55930;47.412;8.790;2023-02-15T15:51:31;95505.34;;;11.84;52.23
68889;BME280;55930;47.412;8.790;2023-02-15T15:55:04;95504.28;;;11.64;53.45
68889;BME280;55930;47.412;8.790;2023-02-15T15:58:34;95504.56;;;11.57;52.37
68889;BME280;55930;47.412;8.790;2023-02-15T16:01:55;95516.31;;;10.88;54.10
68889;BME280;55930;47.412;8.790;2023-02-15T16:05:15;95515.28;;;10.11;58.26
68889;BME280;55930;47.412;8.790;2023-02-15T16:08:37;95513.88;;;9.63;61.05
68889;BME280;55930;47.412;8.790;2023-02-15T16:11:59;95517.47;;;9.09;63.75
68889;BME280;55930;47.412;8.790;2023-02-15T16:15:24;95517.97;;;8.66;65.26
68889;BME280;55930;47.412;8.790;2023-02-15T16:18:46;95526.63;;;8.25;68.25
68889;BME280;55930;47.412;8.790;2023-02-15T16:22:20;95522.34;;;8.02;69.49
68889;BME280;55930;47.412;8.790;2023-02-15T16:29:29;95530.72;;;7.85;69.39
68889;BME280;55930;47.412;8.790;2023-02-15T16:33:14;95533.91;;;7.63;70.90
68889;BME280;55930;47.412;8.790;2023-02-15T16:36:35;95526.81;;;7.12;72.91
68889;BME280;55930;47.412;8.790;2023-02-15T16:39:55;95537.03;;;6.94;74.66
68889;BME280;55930;47.412;8.790;2023-02-15T16:43:20;95539.03;;;6.70;75.20
68889;BME280;55930;47.412;8.790;2023-02-15T16:46:50;95544.94;;;6.58;76.20
68889;BME280;55930;47.412;8.790;2023-02-15T16:50:31;95541.97;;;6.16;78.82
68889;BME280;55930;47.412;8.790;2023-02-15T16:53:54;95548.66;;;6.01;79.67
68889;BME280;55930;47.412;8.790;2023-02-15T16:57:23;95546.19;;;5.67;81.88
68889;BME280;55930;47.412;8.790;2023-02-15T17:00:45;95557.41;;;5.48;82.59
68889;BME280;55930;47.412;8.790;2023-02-15T17:04:13;95557.69;;;5.53;82.91
68889;BME280;55930;47.412;8.790;2023-02-15T17:07:39;95564.09;;;5.29;83.53
68889;BME280;55930;47.412;8.790;2023-02-15T17:11:21;95567.94;;;4.97;85.94
68889;BME280;55930;47.412;8.790;2023-02-15T17:14:41;95563.66;;;4.80;87.08
68889;BME280;55930;47.412;8.790;2023-02-15T17:18:21;95571.97;;;4.75;87.32
68889;BME280;55930;47.412;8.790;2023-02-15T17:21:51;95567.19;;;4.70;87.90
68889;BME280;55930;47.412;8.790;2023-02-15T17:25:20;95573.00;;;4.54;88.30
68889;BME280;55930;47.412;8.790;2023-02-15T17:28:52;95571.41;;;4.30;89.59
68889;BME280;55930;47.412;8.790;2023-02-15T17:32:25;95572.41;;;4.40;88.66
68889;BME280;55930;47.412;8.790;2023-02-15T17:36:02;95571.75;;;4.32;89.45
68889;BME280;55930;47.412;8.790;2023-02-15T17:39:23;95583.16;;;4.18;90.73
68889;BME280;55930;47.412;8.790;2023-02-15T17:42:46;95581.19;;;3.89;92.49
68889;BME280;55930;47.412;8.790;2023-02-15T17:46:08;95583.88;;;3.81;92.45
68889;BME280;55930;47.412;8.790;2023-02-15T17:49:31;95583.88;;;3.81;92.18
68889;BME280;55930;47.412;8.790;2023-02-15T17:52:57;95582.41;;;3.77;93.03
68889;BME280;55930;47.412;8.790;2023-02-15T17:56:18;95579.63;;;3.54;93.05
68889;BME280;55930;47.412;8.790;2023-02-15T17:59:39;95581.84;;;3.59;93.36
68889;BME280;55930;47.412;8.790;2023-02-15T18:03:17;95588.34;;;3.40;94.10
68889;BME280;55930;47.412;8.790;2023-02-15T18:06:57;95587.28;;;3.30;94.95
68889;BME280;55930;47.412;8.790;2023-02-15T18:10:36;95587.03;;;3.14;95.23
68889;BME280;55930;47.412;8.790;2023-02-15T18:14:17;95587.06;;;3.07;95.90
68889;BME280;55930;47.412;8.790;2023-02-15T18:17:43;95594.66;;;2.91;96.90
68889;BME280;55930;47.412;8.790;2023-02-15T18:21:05;95589.03;;;2.89;95.90
68889;BME280;55930;47.412;8.790;2023-02-15T18:24:30;95590.88;;;2.99;96.86
68889;BME280;55930;47.412;8.790;2023-02-15T18:27:51;95594.59;;;2.98;97.50
68889;BME280;55930;47.412;8.790;2023-02-15T18:31:12;95604.44;;;2.80;98.91
68889;BME280;55930;47.412;8.790;2023-02-15T18:34:36;95601.31;;;3.06;98.18
68889;BME280;55930;47.412;8.790;2023-02-15T18:37:59;95611.50;;;2.90;97.73
68889;BME280;55930;47.412;8.790;2023-02-15T18:41:23;95613.00;;;2.91;97.84
68889;BME280;55930;47.412;8.790;2023-02-15T18:44:47;95629.09;;;2.89;97.62
68889;BME280;55930;47.412;8.790;2023-02-15T18:48:07;95628.00;;;2.80;98.20
68889;BME280;55930;47.412;8.790;2023-02-15T18:51:29;95631.06;;;2.71;98.01
68889;BME280;55930;47.412;8.790;2023-02-15T18:54:53;95625.84;;;2.60;98.46
68889;BME280;55930;47.412;8.790;2023-02-15T18:58:17;95632.22;;;2.63;99.31
68889;BME280;55930;47.412;8.790;2023-02-15T19:01:38;95634.84;;;2.59;98.31
68889;BME280;55930;47.412;8.790;2023-02-15T19:04:58;95630.03;;;2.47;99.26
68889;BME280;55930;47.412;8.790;2023-02-15T19:08:21;95630.09;;;2.19;100.00
68889;BME280;55930;47.412;8.790;2023-02-15T19:11:49;95629.00;;;1.99;100.00
68889;BME280;55930;47.412;8.790;2023-02-15T19:15:15;95623.41;;;1.93;100.00
68889;BME280;55930;47.412;8.790;2023-02-15T19:18:36;95622.28;;;1.90;100.00
68889;BME280;55930;47.412;8.790;2023-02-15T19:21:56;95631.25;;;1.93;100.00
68889;BME280;55930;47.412;8.790;2023-02-15T19:25:19;95630.13;;;2.05;100.00
68889;BME280;55930;47.412;8.790;2023-02-15T19:28:41;95627.88;;;2.14;100.00
68889;BME280;55930;47.412;8.790;2023-02-15T19:32:01;95624.88;;;2.01;100.00
68889;BME280;55930;47.412;8.790;2023-02-15T19:35:24;95627.50;;;1.98;100.00
68889;BME280;55930;47.412;8.790;2023-02-15T19:38:47;95619.28;;;2.03;100.00
68889;BME280;55930;47.412;8.790;2023-02-15T19:42:13;95623.41;;;1.97;100.00
68889;BME280;55930;47.412;8.790;2023-02-15T19:45:34;95623.00;;;2.02;100.00
68889;BME280;55930;47.412;8.790;2023-02-15T19:48:55;95624.53;;;1.88;100.00
68889;BME280;55930;47.412;8.790;2023-02-15T19:52:17;95620.03;;;1.89;100.00
68889;BME280;55930;47.412;8.790;2023-02-15T19:55:41;95625.25;;;1.92;100.00
68889;BME280;55930;47.412;8.790;2023-02-15T19:59:02;95624.53;;;1.99;100.00
68889;BME280;55930;47.412;8.790;2023-02-15T20:02:22;95624.13;;;2.01;100.00
68889;BME280;55930;47.412;8.790;2023-02-15T20:05:43;95618.16;;;2.04;100.00
68889;BME280;55930;47.412;8.790;2023-02-15T20:09:04;95627.50;;;2.01;100.00
68889;BME280;55930;47.412;8.790;2023-02-15T20:12:25;95626.75;;;1.93;100.00
68889;BME280;55930;47.412;8.790;2023-02-15T20:15:46;95627.50;;;1.98;100.00
68889;BME280;55930;47.412;8.790;2023-02-15T20:19:06;95623.75;;;2.06;100.00
68889;BME280;55930;47.412;8.790;2023-02-15T20:22:29;95626.00;;;2.07;100.00
68889;BME280;55930;47.412;8.790;2023-02-15T20:25:50;95624.50;;;2.10;100.00
68889;BME280;55930;47.412;8.790;2023-02-15T20:29:15;95622.28;;;1.98;100.00